sensor_id;sensor_type;location;lat;lon;timestamp;P1;durP1;ratioP1;P2;durP2;ratioP2
69386;SDS011;56575;48.942;8.404;2022-12-19T00:03:46;71.05;;;24.65;;
69386;SDS011;56575;48.942;8.404;2022-12-19T00:06:13;68.60;;;24.35;;
69386;SDS011;56575;48.942;8.404;2022-12-19T00:08:41;70.85;;;25.20;;
69386;SDS011;56575;48.942;8.404;2022-12-19T00:11:08;69.40;;;25.77;;
69386;SDS011;56575;48.942;8.404;2022-12-19T00:13:34;75.88;;;25.88;;
69386;SDS011;56575;48.942;8.404;2022-12-19T00:16:01;72.60;;;26.45;;
69386;SDS011;56575;48.942;8.404;2022-12-19T00:18:31;68.50;;;24.90;;
69386;SDS011;56575;48.942;8.404;2022-12-19T00:20:59;71.03;;;25.50;;
69386;SDS011;56575;48.942;8.404;2022-12-19T00:23:27;72.13;;;25.27;;
69386;SDS011;56575;48.942;8.404;2022-12-19T00:25:53;58.70;;;23.33;;
69386;SDS011;56575;48.942;8.404;2022-12-19T00:28:19;63.67;;;25.17;;
69386;SDS011;56575;48.942;8.404;2022-12-19T00:30:46;71.30;;;25.58;;
69386;SDS011;56575;48.942;8.404;2022-12-19T00:33:12;71.63;;;25.10;;
69386;SDS011;56575;48.942;8.404;2022-12-19T00:35:38;75.40;;;25.92;;
69386;SDS011;56575;48.942;8.404;2022-12-19T00:38:06;72.10;;;25.05;;
69386;SDS011;56575;48.942;8.404;2022-12-19T00:40:33;69.88;;;24.60;;
69386;SDS011;56575;48.942;8.404;2022-12-19T00:42:59;67.40;;;24.67;;
69386;SDS011;56575;48.942;8.404;2022-12-19T00:45:26;70.80;;;25.42;;
69386;SDS011;56575;48.942;8.404;2022-12-19T00:47:52;69.15;;;25.27;;
69386;SDS011;56575;48.942;8.404;2022-12-19T00:50:18;70.28;;;25.00;;
69386;SDS011;56575;48.942;8.404;2022-12-19T00:52:43;67.37;;;24.60;;
69386;SDS011;56575;48.942;8.404;2022-12-19T00:55:10;74.25;;;26.08;;
69386;SDS011;56575;48.942;8.404;2022-12-19T00:57:35;67.87;;;24.73;;
69386;SDS011;56575;48.942;8.404;2022-12-19T01:00:01;72.53;;;25.03;;
69386;SDS011;56575;48.942;8.404;2022-12-19T01:02:26;64.67;;;23.80;;
69386;SDS011;56575;48.942;8.404;2022-12-19T01:04:52;68.63;;;24.97;;
69386;SDS011;56575;48.942;8.404;2022-12-19T01:07:18;69.90;;;25.90;;
69386;SDS011;56575;48.942;8.404;2022-12-19T01:09:44;64.83;;;23.93;;
69386;SDS011;56575;48.942;8.404;2022-12-19T01:12:09;55.70;;;23.73;;
69386;SDS011;56575;48.942;8.404;2022-12-19T01:14:54;69.60;;;24.60;;
69386;SDS011;56575;48.942;8.404;2022-12-19T01:17:20;59.87;;;22.93;;
69386;SDS011;56575;48.942;8.404;2022-12-19T01:19:46;67.20;;;24.05;;
69386;SDS011;56575;48.942;8.404;2022-12-19T01:22:12;63.93;;;23.70;;
69386;SDS011;56575;48.942;8.404;2022-12-19T01:24:37;71.32;;;24.88;;
69386;SDS011;56575;48.942;8.404;2022-12-19T01:27:03;63.37;;;23.93;;
69386;SDS011;56575;48.942;8.404;2022-12-19T01:29:30;66.43;;;23.95;;
69386;SDS011;56575;48.942;8.404;2022-12-19T01:31:57;70.33;;;24.07;;
69386;SDS011;56575;48.942;8.404;2022-12-19T01:34:24;67.25;;;25.33;;
69386;SDS011;56575;48.942;8.404;2022-12-19T01:36:50;72.65;;;25.20;;
69386;SDS011;56575;48.942;8.404;2022-12-19T01:39:15;69.53;;;24.60;;
69386;SDS011;56575;48.942;8.404;2022-12-19T01:41:41;71.60;;;24.50;;
69386;SDS011;56575;48.942;8.404;2022-12-19T01:44:07;75.57;;;25.30;;
69386;SDS011;56575;48.942;8.404;2022-12-19T01:46:37;69.57;;;25.15;;
69386;SDS011;56575;48.942;8.404;2022-12-19T01:49:06;64.85;;;24.30;;
69386;SDS011;56575;48.942;8.404;2022-12-19T01:51:55;66.22;;;24.33;;
69386;SDS011;56575;48.942;8.404;2022-12-19T01:54:31;73.30;;;26.40;;
69386;SDS011;56575;48.942;8.404;2022-12-19T01:57:03;70.37;;;24.67;;
69386;SDS011;56575;48.942;8.404;2022-12-19T01:59:33;63.08;;;23.20;;
69386;SDS011;56575;48.942;8.404;2022-12-19T02:02:04;63.58;;;24.80;;
69386;SDS011;56575;48.942;8.404;2022-12-19T02:04:39;67.55;;;24.27;;
69386;SDS011;56575;48.942;8.404;2022-12-19T02:07:08;67.30;;;25.20;;
69386;SDS011;56575;48.942;8.404;2022-12-19T02:09:34;65.67;;;23.40;;
69386;SDS011;56575;48.942;8.404;2022-12-19T02:12:01;69.60;;;24.83;;
69386;SDS011;56575;48.942;8.404;2022-12-19T02:14:29;61.85;;;23.77;;
69386;SDS011;56575;48.942;8.404;2022-12-19T02:19:48;66.07;;;23.50;;
69386;SDS011;56575;48.942;8.404;2022-12-19T02:22:42;63.13;;;24.17;;
69386;SDS011;56575;48.942;8.404;2022-12-19T02:25:24;66.47;;;23.80;;
69386;SDS011;56575;48.942;8.404;2022-12-19T02:31:13;61.55;;;24.05;;
69386;SDS011;56575;48.942;8.404;2022-12-19T02:33:49;66.45;;;24.70;;
69386;SDS011;56575;48.942;8.404;2022-12-19T02:36:21;63.60;;;24.03;;
69386;SDS011;56575;48.942;8.404;2022-12-19T02:39:05;70.38;;;24.65;;
69386;SDS011;56575;48.942;8.404;2022-12-19T02:41:40;60.83;;;24.20;;
69386;SDS011;56575;48.942;8.404;2022-12-19T02:44:33;63.28;;;23.65;;
69386;SDS011;56575;48.942;8.404;2022-12-19T02:47:03;69.97;;;24.08;;
69386;SDS011;56575;48.942;8.404;2022-12-19T02:49:34;67.50;;;23.47;;
69386;SDS011;56575;48.942;8.404;2022-12-19T02:52:11;64.18;;;24.75;;
69386;SDS011;56575;48.942;8.404;2022-12-19T02:55:07;64.18;;;24.00;;
69386;SDS011;56575;48.942;8.404;2022-12-19T02:57:40;66.82;;;23.60;;
69386;SDS011;56575;48.942;8.404;2022-12-19T03:00:21;67.55;;;25.20;;
69386;SDS011;56575;48.942;8.404;2022-12-19T03:05:40;69.18;;;25.30;;
69386;SDS011;56575;48.942;8.404;2022-12-19T03:08:24;72.75;;;26.20;;
69386;SDS011;56575;48.942;8.404;2022-12-19T03:11:07;73.05;;;25.33;;
69386;SDS011;56575;48.942;8.404;2022-12-19T03:13:45;62.03;;;23.67;;
69386;SDS011;56575;48.942;8.404;2022-12-19T03:16:18;71.97;;;25.00;;
69386;SDS011;56575;48.942;8.404;2022-12-19T03:18:43;66.75;;;24.17;;
69386;SDS011;56575;48.942;8.404;2022-12-19T03:23:55;67.13;;;24.98;;
69386;SDS011;56575;48.942;8.404;2022-12-19T03:26:24;71.25;;;25.85;;
69386;SDS011;56575;48.942;8.404;2022-12-19T03:29:04;70.88;;;25.38;;
69386;SDS011;56575;48.942;8.404;2022-12-19T03:31:36;67.25;;;24.65;;
69386;SDS011;56575;48.942;8.404;2022-12-19T03:34:06;70.17;;;25.00;;
69386;SDS011;56575;48.942;8.404;2022-12-19T03:36:37;73.30;;;24.98;;
69386;SDS011;56575;48.942;8.404;2022-12-19T03:39:07;61.92;;;24.00;;
69386;SDS011;56575;48.942;8.404;2022-12-19T03:41:35;66.85;;;23.92;;
69386;SDS011;56575;48.942;8.404;2022-12-19T03:44:21;66.68;;;23.92;;
69386;SDS011;56575;48.942;8.404;2022-12-19T03:49:39;67.55;;;25.08;;
69386;SDS011;56575;48.942;8.404;2022-12-19T03:52:10;54.28;;;22.55;;
69386;SDS011;56575;48.942;8.404;2022-12-19T03:55:08;63.55;;;22.30;;
69386;SDS011;56575;48.942;8.404;2022-12-19T03:57:46;65.45;;;23.13;;
69386;SDS011;56575;48.942;8.404;2022-12-19T04:00:20;63.07;;;23.73;;
69386;SDS011;56575;48.942;8.404;2022-12-19T04:02:49;56.63;;;22.45;;
69386;SDS011;56575;48.942;8.404;2022-12-19T04:05:17;58.88;;;23.77;;
69386;SDS011;56575;48.942;8.404;2022-12-19T04:07:49;58.13;;;22.90;;
69386;SDS011;56575;48.942;8.404;2022-12-19T04:10:20;65.85;;;22.52;;
69386;SDS011;56575;48.942;8.404;2022-12-19T04:12:49;64.40;;;23.80;;
69386;SDS011;56575;48.942;8.404;2022-12-19T04:15:20;66.43;;;24.27;;
69386;SDS011;56575;48.942;8.404;2022-12-19T04:17:57;68.20;;;25.58;;
69386;SDS011;56575;48.942;8.404;2022-12-19T04:20:25;61.38;;;23.23;;
69386;SDS011;56575;48.942;8.404;2022-12-19T04:25:31;61.50;;;23.37;;
69386;SDS011;56575;48.942;8.404;2022-12-19T04:28:09;61.08;;;23.20;;
69386;SDS011;56575;48.942;8.404;2022-12-19T04:30:41;63.97;;;24.35;;
69386;SDS011;56575;48.942;8.404;2022-12-19T04:33:09;64.72;;;24.00;;
69386;SDS011;56575;48.942;8.404;2022-12-19T04:35:34;64.80;;;24.63;;
69386;SDS011;56575;48.942;8.404;2022-12-19T04:38:00;64.43;;;25.52;;
69386;SDS011;56575;48.942;8.404;2022-12-19T04:40:25;62.83;;;23.83;;
69386;SDS011;56575;48.942;8.404;2022-12-19T04:42:51;64.60;;;25.63;;
69386;SDS011;56575;48.942;8.404;2022-12-19T04:45:16;59.90;;;23.10;;
69386;SDS011;56575;48.942;8.404;2022-12-19T04:47:42;64.35;;;25.20;;
69386;SDS011;56575;48.942;8.404;2022-12-19T04:50:07;63.23;;;25.20;;
69386;SDS011;56575;48.942;8.404;2022-12-19T04:52:33;61.13;;;24.42;;
69386;SDS011;56575;48.942;8.404;2022-12-19T04:54:59;59.13;;;24.10;;
69386;SDS011;56575;48.942;8.404;2022-12-19T04:57:24;60.23;;;24.90;;
69386;SDS011;56575;48.942;8.404;2022-12-19T04:59:49;60.30;;;24.03;;
69386;SDS011;56575;48.942;8.404;2022-12-19T05:02:16;60.80;;;23.08;;
69386;SDS011;56575;48.942;8.404;2022-12-19T05:04:42;63.60;;;23.92;;
69386;SDS011;56575;48.942;8.404;2022-12-19T05:07:07;63.77;;;24.43;;
69386;SDS011;56575;48.942;8.404;2022-12-19T05:09:32;65.93;;;25.77;;
69386;SDS011;56575;48.942;8.404;2022-12-19T05:12:01;62.40;;;24.17;;
69386;SDS011;56575;48.942;8.404;2022-12-19T05:14:26;60.37;;;24.33;;
69386;SDS011;56575;48.942;8.404;2022-12-19T05:16:53;62.03;;;24.05;;
69386;SDS011;56575;48.942;8.404;2022-12-19T05:19:18;61.63;;;24.03;;
69386;SDS011;56575;48.942;8.404;2022-12-19T05:21:44;57.40;;;23.70;;
69386;SDS011;56575;48.942;8.404;2022-12-19T05:24:11;56.83;;;23.23;;
69386;SDS011;56575;48.942;8.404;2022-12-19T05:26:38;53.73;;;22.83;;
69386;SDS011;56575;48.942;8.404;2022-12-19T05:29:04;63.33;;;24.23;;
69386;SDS011;56575;48.942;8.404;2022-12-19T05:31:29;57.53;;;22.27;;
69386;SDS011;56575;48.942;8.404;2022-12-19T05:33:54;55.97;;;22.07;;
69386;SDS011;56575;48.942;8.404;2022-12-19T05:36:20;53.20;;;21.50;;
69386;SDS011;56575;48.942;8.404;2022-12-19T05:38:46;57.40;;;23.02;;
69386;SDS011;56575;48.942;8.404;2022-12-19T05:41:15;53.13;;;21.63;;
69386;SDS011;56575;48.942;8.404;2022-12-19T05:43:43;55.03;;;23.40;;
69386;SDS011;56575;48.942;8.404;2022-12-19T05:46:10;54.80;;;22.77;;
69386;SDS011;56575;48.942;8.404;2022-12-19T05:48:35;54.70;;;23.90;;
69386;SDS011;56575;48.942;8.404;2022-12-19T05:51:02;58.80;;;24.42;;
69386;SDS011;56575;48.942;8.404;2022-12-19T05:53:27;60.60;;;23.20;;
69386;SDS011;56575;48.942;8.404;2022-12-19T05:56:10;59.80;;;25.25;;
69386;SDS011;56575;48.942;8.404;2022-12-19T05:58:38;56.97;;;23.67;;
69386;SDS011;56575;48.942;8.404;2022-12-19T06:01:06;59.63;;;23.77;;
69386;SDS011;56575;48.942;8.404;2022-12-19T06:03:33;59.60;;;23.73;;
69386;SDS011;56575;48.942;8.404;2022-12-19T06:06:07;56.33;;;22.70;;
69386;SDS011;56575;48.942;8.404;2022-12-19T06:08:34;58.50;;;23.63;;
69386;SDS011;56575;48.942;8.404;2022-12-19T06:11:01;61.67;;;25.30;;
69386;SDS011;56575;48.942;8.404;2022-12-19T06:13:28;54.03;;;22.50;;
69386;SDS011;56575;48.942;8.404;2022-12-19T06:16:02;56.30;;;24.15;;
69386;SDS011;56575;48.942;8.404;2022-12-19T06:18:38;57.55;;;24.55;;
69386;SDS011;56575;48.942;8.404;2022-12-19T06:21:05;57.60;;;24.50;;
69386;SDS011;56575;48.942;8.404;2022-12-19T06:23:34;53.50;;;21.88;;
69386;SDS011;56575;48.942;8.404;2022-12-19T06:26:01;51.50;;;21.07;;
69386;SDS011;56575;48.942;8.404;2022-12-19T06:28:28;46.88;;;20.35;;
69386;SDS011;56575;48.942;8.404;2022-12-19T06:30:58;47.28;;;20.42;;
69386;SDS011;56575;48.942;8.404;2022-12-19T06:33:24;68.82;;;26.85;;
69386;SDS011;56575;48.942;8.404;2022-12-19T06:36:00;62.60;;;26.98;;
69386;SDS011;56575;48.942;8.404;2022-12-19T06:38:28;66.17;;;25.23;;
69386;SDS011;56575;48.942;8.404;2022-12-19T06:40:54;58.90;;;25.17;;
69386;SDS011;56575;48.942;8.404;2022-12-19T06:43:38;58.40;;;23.58;;
69386;SDS011;56575;48.942;8.404;2022-12-19T06:46:04;52.33;;;22.30;;
69386;SDS011;56575;48.942;8.404;2022-12-19T06:48:30;53.95;;;24.23;;
69386;SDS011;56575;48.942;8.404;2022-12-19T06:50:57;57.67;;;22.63;;
69386;SDS011;56575;48.942;8.404;2022-12-19T06:53:23;57.38;;;23.75;;
69386;SDS011;56575;48.942;8.404;2022-12-19T06:55:49;51.57;;;22.80;;
69386;SDS011;56575;48.942;8.404;2022-12-19T06:58:17;55.38;;;22.63;;
69386;SDS011;56575;48.942;8.404;2022-12-19T07:00:43;59.53;;;23.07;;
69386;SDS011;56575;48.942;8.404;2022-12-19T07:03:09;53.80;;;20.63;;
69386;SDS011;56575;48.942;8.404;2022-12-19T07:05:39;53.05;;;20.50;;
69386;SDS011;56575;48.942;8.404;2022-12-19T07:08:06;46.22;;;20.40;;
69386;SDS011;56575;48.942;8.404;2022-12-19T07:10:33;48.88;;;19.92;;
69386;SDS011;56575;48.942;8.404;2022-12-19T07:12:58;41.57;;;18.13;;
69386;SDS011;56575;48.942;8.404;2022-12-19T07:15:24;37.60;;;17.20;;
69386;SDS011;56575;48.942;8.404;2022-12-19T07:17:50;39.33;;;16.58;;
69386;SDS011;56575;48.942;8.404;2022-12-19T07:20:18;37.55;;;16.20;;
69386;SDS011;56575;48.942;8.404;2022-12-19T07:22:45;40.15;;;15.05;;
69386;SDS011;56575;48.942;8.404;2022-12-19T07:25:11;35.20;;;15.30;;
69386;SDS011;56575;48.942;8.404;2022-12-19T07:27:37;37.90;;;16.02;;
69386;SDS011;56575;48.942;8.404;2022-12-19T07:30:03;40.23;;;17.43;;
69386;SDS011;56575;48.942;8.404;2022-12-19T07:32:30;36.42;;;15.30;;
69386;SDS011;56575;48.942;8.404;2022-12-19T07:34:57;40.13;;;17.48;;
69386;SDS011;56575;48.942;8.404;2022-12-19T07:37:23;40.33;;;17.60;;
69386;SDS011;56575;48.942;8.404;2022-12-19T07:39:50;40.13;;;17.20;;
69386;SDS011;56575;48.942;8.404;2022-12-19T07:42:17;54.92;;;20.60;;
69386;SDS011;56575;48.942;8.404;2022-12-19T07:44:42;46.70;;;19.73;;
69386;SDS011;56575;48.942;8.404;2022-12-19T07:47:08;42.75;;;18.10;;
69386;SDS011;56575;48.942;8.404;2022-12-19T07:49:33;42.97;;;19.20;;
69386;SDS011;56575;48.942;8.404;2022-12-19T07:51:59;43.47;;;19.75;;
69386;SDS011;56575;48.942;8.404;2022-12-19T07:54:25;45.77;;;21.23;;
69386;SDS011;56575;48.942;8.404;2022-12-19T07:56:50;47.43;;;19.90;;
69386;SDS011;56575;48.942;8.404;2022-12-19T07:59:15;38.70;;;16.90;;
69386;SDS011;56575;48.942;8.404;2022-12-19T08:01:41;39.57;;;15.90;;
69386;SDS011;56575;48.942;8.404;2022-12-19T08:04:06;36.93;;;15.60;;
69386;SDS011;56575;48.942;8.404;2022-12-19T08:06:32;43.10;;;16.55;;
69386;SDS011;56575;48.942;8.404;2022-12-19T08:08:57;54.10;;;16.33;;
69386;SDS011;56575;48.942;8.404;2022-12-19T08:11:23;38.07;;;15.63;;
69386;SDS011;56575;48.942;8.404;2022-12-19T08:13:53;36.15;;;15.40;;
69386;SDS011;56575;48.942;8.404;2022-12-19T08:16:19;35.77;;;16.87;;
69386;SDS011;56575;48.942;8.404;2022-12-19T08:18:44;41.10;;;19.02;;
69386;SDS011;56575;48.942;8.404;2022-12-19T08:21:10;59.93;;;21.20;;
69386;SDS011;56575;48.942;8.404;2022-12-19T08:23:36;62.92;;;20.25;;
69386;SDS011;56575;48.942;8.404;2022-12-19T08:26:03;51.58;;;17.13;;
69386;SDS011;56575;48.942;8.404;2022-12-19T08:28:31;40.75;;;18.27;;
69386;SDS011;56575;48.942;8.404;2022-12-19T08:30:58;41.70;;;21.20;;
69386;SDS011;56575;48.942;8.404;2022-12-19T08:33:29;47.15;;;24.77;;
69386;SDS011;56575;48.942;8.404;2022-12-19T08:35:54;36.20;;;17.57;;
69386;SDS011;56575;48.942;8.404;2022-12-19T08:38:19;32.97;;;14.63;;
69386;SDS011;56575;48.942;8.404;2022-12-19T08:40:50;46.80;;;15.60;;
69386;SDS011;56575;48.942;8.404;2022-12-19T08:43:16;51.27;;;17.10;;
69386;SDS011;56575;48.942;8.404;2022-12-19T08:45:43;44.70;;;18.42;;
69386;SDS011;56575;48.942;8.404;2022-12-19T08:48:09;42.03;;;19.42;;
69386;SDS011;56575;48.942;8.404;2022-12-19T08:50:34;42.43;;;16.73;;
69386;SDS011;56575;48.942;8.404;2022-12-19T08:53:00;37.17;;;15.27;;
69386;SDS011;56575;48.942;8.404;2022-12-19T08:55:25;42.67;;;16.13;;
69386;SDS011;56575;48.942;8.404;2022-12-19T08:57:51;32.17;;;14.20;;
69386;SDS011;56575;48.942;8.404;2022-12-19T09:00:33;34.83;;;15.90;;
69386;SDS011;56575;48.942;8.404;2022-12-19T09:07:20;59.33;;;20.70;;
69386;SDS011;56575;48.942;8.404;2022-12-19T09:09:45;53.03;;;19.70;;
69386;SDS011;56575;48.942;8.404;2022-12-19T09:12:11;45.33;;;18.47;;
69386;SDS011;56575;48.942;8.404;2022-12-19T09:14:38;74.65;;;24.45;;
69386;SDS011;56575;48.942;8.404;2022-12-19T09:17:03;57.90;;;21.17;;
69386;SDS011;56575;48.942;8.404;2022-12-19T09:19:29;71.57;;;23.90;;
69386;SDS011;56575;48.942;8.404;2022-12-19T09:21:54;133.35;;;31.08;;
69386;SDS011;56575;48.942;8.404;2022-12-19T09:24:19;101.27;;;25.93;;
69386;SDS011;56575;48.942;8.404;2022-12-19T09:26:45;80.90;;;22.07;;
69386;SDS011;56575;48.942;8.404;2022-12-19T09:29:10;47.80;;;17.60;;
69386;SDS011;56575;48.942;8.404;2022-12-19T09:31:37;46.47;;;17.95;;
69386;SDS011;56575;48.942;8.404;2022-12-19T09:34:02;39.70;;;15.87;;
69386;SDS011;56575;48.942;8.404;2022-12-19T09:36:29;38.15;;;16.40;;
69386;SDS011;56575;48.942;8.404;2022-12-19T09:38:57;40.97;;;16.63;;
69386;SDS011;56575;48.942;8.404;2022-12-19T09:47:09;46.17;;;20.33;;
69386;SDS011;56575;48.942;8.404;2022-12-19T09:49:40;48.58;;;20.92;;
69386;SDS011;56575;48.942;8.404;2022-12-19T09:52:10;50.97;;;20.75;;
69386;SDS011;56575;48.942;8.404;2022-12-19T09:54:57;59.00;;;22.90;;
69386;SDS011;56575;48.942;8.404;2022-12-19T09:59:55;53.03;;;18.13;;
69386;SDS011;56575;48.942;8.404;2022-12-19T10:08:08;53.95;;;17.08;;
69386;SDS011;56575;48.942;8.404;2022-12-19T10:10:52;38.28;;;16.20;;
69386;SDS011;56575;48.942;8.404;2022-12-19T10:13:40;35.58;;;16.50;;
69386;SDS011;56575;48.942;8.404;2022-12-19T10:19:28;32.33;;;16.42;;
69386;SDS011;56575;48.942;8.404;2022-12-19T10:22:31;31.55;;;16.38;;
69386;SDS011;56575;48.942;8.404;2022-12-19T10:30:13;36.47;;;16.30;;
69386;SDS011;56575;48.942;8.404;2022-12-19T10:35:45;31.83;;;16.10;;
69386;SDS011;56575;48.942;8.404;2022-12-19T10:38:28;33.35;;;15.45;;
69386;SDS011;56575;48.942;8.404;2022-12-19T10:41:10;37.95;;;15.38;;
69386;SDS011;56575;48.942;8.404;2022-12-19T10:43:51;31.07;;;14.20;;
69386;SDS011;56575;48.942;8.404;2022-12-19T10:49:21;30.17;;;14.63;;
69386;SDS011;56575;48.942;8.404;2022-12-19T10:57:22;39.10;;;16.70;;
69386;SDS011;56575;48.942;8.404;2022-12-19T11:08:02;40.42;;;18.40;;
69386;SDS011;56575;48.942;8.404;2022-12-19T11:13:24;39.78;;;19.05;;
69386;SDS011;56575;48.942;8.404;2022-12-19T11:15:54;39.20;;;18.73;;
69386;SDS011;56575;48.942;8.404;2022-12-19T11:18:21;35.72;;;16.58;;
69386;SDS011;56575;48.942;8.404;2022-12-19T11:20:54;37.22;;;18.17;;
69386;SDS011;56575;48.942;8.404;2022-12-19T11:29:16;36.38;;;16.30;;
69386;SDS011;56575;48.942;8.404;2022-12-19T11:32:20;34.88;;;15.85;;
69386;SDS011;56575;48.942;8.404;2022-12-19T11:34:51;36.47;;;16.27;;
69386;SDS011;56575;48.942;8.404;2022-12-19T11:37:29;35.93;;;16.40;;
69386;SDS011;56575;48.942;8.404;2022-12-19T11:40:03;39.08;;;18.05;;
69386;SDS011;56575;48.942;8.404;2022-12-19T11:43:10;38.92;;;18.55;;
69386;SDS011;56575;48.942;8.404;2022-12-19T11:45:50;43.30;;;18.25;;
69386;SDS011;56575;48.942;8.404;2022-12-19T11:48:23;39.78;;;18.58;;
69386;SDS011;56575;48.942;8.404;2022-12-19T11:51:17;41.23;;;19.20;;
69386;SDS011;56575;48.942;8.404;2022-12-19T11:53:55;40.50;;;18.90;;
69386;SDS011;56575;48.942;8.404;2022-12-19T11:56:38;40.53;;;20.60;;
69386;SDS011;56575;48.942;8.404;2022-12-19T11:59:09;47.47;;;21.00;;
69386;SDS011;56575;48.942;8.404;2022-12-19T12:07:12;42.75;;;18.20;;
69386;SDS011;56575;48.942;8.404;2022-12-19T12:09:48;39.38;;;18.70;;
69386;SDS011;56575;48.942;8.404;2022-12-19T12:15:00;43.30;;;19.58;;
69386;SDS011;56575;48.942;8.404;2022-12-19T12:17:45;45.55;;;20.23;;
69386;SDS011;56575;48.942;8.404;2022-12-19T12:20:35;38.78;;;17.80;;
69386;SDS011;56575;48.942;8.404;2022-12-19T12:26:12;40.00;;;19.07;;
69386;SDS011;56575;48.942;8.404;2022-12-19T12:40:04;45.57;;;20.03;;
69386;SDS011;56575;48.942;8.404;2022-12-19T12:45:22;39.83;;;18.98;;
69386;SDS011;56575;48.942;8.404;2022-12-19T12:47:52;67.88;;;25.67;;
69386;SDS011;56575;48.942;8.404;2022-12-19T12:50:18;117.50;;;29.80;;
69386;SDS011;56575;48.942;8.404;2022-12-19T12:52:51;107.97;;;29.93;;
69386;SDS011;56575;48.942;8.404;2022-12-19T12:55:34;98.30;;;26.70;;
69386;SDS011;56575;48.942;8.404;2022-12-19T12:58:08;58.97;;;22.70;;
69386;SDS011;56575;48.942;8.404;2022-12-19T13:01:11;41.30;;;19.67;;
69386;SDS011;56575;48.942;8.404;2022-12-19T13:03:42;44.00;;;19.88;;
69386;SDS011;56575;48.942;8.404;2022-12-19T13:06:27;41.07;;;19.70;;
69386;SDS011;56575;48.942;8.404;2022-12-19T13:09:04;44.22;;;18.48;;
69386;SDS011;56575;48.942;8.404;2022-12-19T13:11:49;40.67;;;19.55;;
69386;SDS011;56575;48.942;8.404;2022-12-19T13:14:40;49.75;;;19.63;;
69386;SDS011;56575;48.942;8.404;2022-12-19T13:17:08;50.05;;;20.30;;
69386;SDS011;56575;48.942;8.404;2022-12-19T13:19:39;50.43;;;19.93;;
69386;SDS011;56575;48.942;8.404;2022-12-19T13:22:20;52.17;;;19.92;;
69386;SDS011;56575;48.942;8.404;2022-12-19T13:24:54;62.25;;;20.98;;
69386;SDS011;56575;48.942;8.404;2022-12-19T13:32:32;48.50;;;20.80;;
69386;SDS011;56575;48.942;8.404;2022-12-19T13:45:52;40.87;;;19.63;;
69386;SDS011;56575;48.942;8.404;2022-12-19T13:51:21;42.28;;;19.75;;
69386;SDS011;56575;48.942;8.404;2022-12-19T13:53:50;46.77;;;20.07;;
69386;SDS011;56575;48.942;8.404;2022-12-19T13:56:17;40.88;;;19.92;;
69386;SDS011;56575;48.942;8.404;2022-12-19T13:58:56;47.58;;;21.25;;
69386;SDS011;56575;48.942;8.404;2022-12-19T14:01:34;57.45;;;21.88;;
69386;SDS011;56575;48.942;8.404;2022-12-19T14:04:22;48.63;;;22.70;;
69386;SDS011;56575;48.942;8.404;2022-12-19T14:06:53;52.72;;;24.15;;
69386;SDS011;56575;48.942;8.404;2022-12-19T14:09:34;53.30;;;24.30;;
69386;SDS011;56575;48.942;8.404;2022-12-19T14:12:04;47.78;;;23.83;;
69386;SDS011;56575;48.942;8.404;2022-12-19T14:14:32;48.53;;;24.63;;
69386;SDS011;56575;48.942;8.404;2022-12-19T14:17:20;56.27;;;25.20;;
69386;SDS011;56575;48.942;8.404;2022-12-19T14:19:47;58.22;;;26.48;;
69386;SDS011;56575;48.942;8.404;2022-12-19T14:29:53;59.10;;;26.47;;
69386;SDS011;56575;48.942;8.404;2022-12-19T14:32:18;61.42;;;26.92;;
69386;SDS011;56575;48.942;8.404;2022-12-19T14:34:46;52.33;;;23.83;;
69386;SDS011;56575;48.942;8.404;2022-12-19T14:37:32;52.27;;;24.70;;
69386;SDS011;56575;48.942;8.404;2022-12-19T14:40:06;57.20;;;26.15;;
69386;SDS011;56575;48.942;8.404;2022-12-19T14:43:03;56.25;;;25.95;;
69386;SDS011;56575;48.942;8.404;2022-12-19T14:45:52;53.35;;;25.73;;
69386;SDS011;56575;48.942;8.404;2022-12-19T14:48:34;55.72;;;26.38;;
69386;SDS011;56575;48.942;8.404;2022-12-19T14:53:35;64.47;;;29.73;;
69386;SDS011;56575;48.942;8.404;2022-12-19T14:58:38;74.47;;;33.45;;
69386;SDS011;56575;48.942;8.404;2022-12-19T15:01:26;66.37;;;31.93;;
69386;SDS011;56575;48.942;8.404;2022-12-19T15:03:58;66.90;;;32.20;;
69386;SDS011;56575;48.942;8.404;2022-12-19T15:06:41;69.47;;;31.88;;
69386;SDS011;56575;48.942;8.404;2022-12-19T15:09:10;65.40;;;31.27;;
69386;SDS011;56575;48.942;8.404;2022-12-19T15:11:45;63.92;;;31.05;;
69386;SDS011;56575;48.942;8.404;2022-12-19T15:14:41;57.57;;;28.13;;
69386;SDS011;56575;48.942;8.404;2022-12-19T15:19:46;65.90;;;30.40;;
69386;SDS011;56575;48.942;8.404;2022-12-19T15:22:12;63.83;;;30.75;;
69386;SDS011;56575;48.942;8.404;2022-12-19T15:24:37;63.63;;;31.30;;
69386;SDS011;56575;48.942;8.404;2022-12-19T15:27:03;68.60;;;30.17;;
69386;SDS011;56575;48.942;8.404;2022-12-19T15:29:28;86.53;;;32.70;;
69386;SDS011;56575;48.942;8.404;2022-12-19T15:31:56;77.70;;;31.53;;
69386;SDS011;56575;48.942;8.404;2022-12-19T15:34:22;74.87;;;30.07;;
69386;SDS011;56575;48.942;8.404;2022-12-19T15:36:48;65.73;;;30.00;;
69386;SDS011;56575;48.942;8.404;2022-12-19T15:39:15;72.00;;;29.88;;
69386;SDS011;56575;48.942;8.404;2022-12-19T15:41:40;72.10;;;29.63;;
69386;SDS011;56575;48.942;8.404;2022-12-19T15:44:08;72.10;;;29.73;;
69386;SDS011;56575;48.942;8.404;2022-12-19T15:46:39;70.33;;;28.57;;
69386;SDS011;56575;48.942;8.404;2022-12-19T15:49:04;55.00;;;24.92;;
69386;SDS011;56575;48.942;8.404;2022-12-19T15:51:30;50.33;;;22.67;;
69386;SDS011;56575;48.942;8.404;2022-12-19T15:53:55;47.93;;;22.23;;
69386;SDS011;56575;48.942;8.404;2022-12-19T15:56:22;49.27;;;22.93;;
69386;SDS011;56575;48.942;8.404;2022-12-19T15:58:53;41.97;;;20.30;;
69386;SDS011;56575;48.942;8.404;2022-12-19T16:01:21;41.25;;;20.50;;
69386;SDS011;56575;48.942;8.404;2022-12-19T16:03:46;44.93;;;19.77;;
69386;SDS011;56575;48.942;8.404;2022-12-19T16:06:12;42.28;;;19.23;;
69386;SDS011;56575;48.942;8.404;2022-12-19T16:08:39;39.67;;;17.98;;
69386;SDS011;56575;48.942;8.404;2022-12-19T16:11:04;47.00;;;22.60;;
69386;SDS011;56575;48.942;8.404;2022-12-19T16:13:31;43.58;;;21.30;;
69386;SDS011;56575;48.942;8.404;2022-12-19T16:15:59;45.23;;;21.07;;
69386;SDS011;56575;48.942;8.404;2022-12-19T16:18:25;47.55;;;21.45;;
69386;SDS011;56575;48.942;8.404;2022-12-19T16:20:50;41.37;;;20.73;;
69386;SDS011;56575;48.942;8.404;2022-12-19T16:23:16;42.88;;;20.65;;
69386;SDS011;56575;48.942;8.404;2022-12-19T16:25:42;48.73;;;21.47;;
69386;SDS011;56575;48.942;8.404;2022-12-19T16:28:30;43.83;;;21.15;;
69386;SDS011;56575;48.942;8.404;2022-12-19T16:31:11;48.95;;;21.45;;
69386;SDS011;56575;48.942;8.404;2022-12-19T16:33:39;48.88;;;22.52;;
69386;SDS011;56575;48.942;8.404;2022-12-19T16:36:05;48.93;;;24.83;;
69386;SDS011;56575;48.942;8.404;2022-12-19T16:38:30;45.27;;;23.47;;
69386;SDS011;56575;48.942;8.404;2022-12-19T16:40:57;44.97;;;21.63;;
69386;SDS011;56575;48.942;8.404;2022-12-19T16:43:25;46.23;;;21.10;;
69386;SDS011;56575;48.942;8.404;2022-12-19T16:45:57;49.83;;;23.48;;
69386;SDS011;56575;48.942;8.404;2022-12-19T16:48:24;43.73;;;20.77;;
69386;SDS011;56575;48.942;8.404;2022-12-19T16:50:51;42.40;;;19.02;;
69386;SDS011;56575;48.942;8.404;2022-12-19T16:53:18;42.97;;;19.58;;
69386;SDS011;56575;48.942;8.404;2022-12-19T16:55:44;41.47;;;19.27;;